ENMS  Mosjøen Airport, Kjærstad Airport

Add Bookmark

Norway

Status IATA
Operational MJF
Latitude Longitude
65° 47' 2" N 13° 12' 53" E
65.783997 13.214900
Local (DST + 2) UTC (GMT + 1)
Dec 21, 2014 11:17 Dec 21, 2014 22:17
Sunrise-Sunset Local UTC
Begin Civil Twilight 08:54 07:54
Sunrise 10:28 09:28
Sunset 01:41 12:41
End Civil Twilight 03:16 14:16

Current Weather

METAR Observed VFR
ENMS 212150Z 19002KT CAVOK M14/M15 Q0995 Sun, Dec 21, 2014 @ 21:50 UTC
(27 Minutes ago)
Visual Flight Rules
Wind Visibility Clouds Conditions
190° at 2 knots (4 kph) 10 km or more
  • Clear skies
  • No significant weather
Temperatures Readings Precipitation
Current Temp -14°C (7°F)
Dewpoint -15°C (5°F)
Humidity 92%
Altimeter 29.38"Hg
Sea Level Pressure 995mb
Field Elevation 229.66'
None Recorded

Additional weather within a 92.6km radius of ENMS

Map ICAO Location
ENST 38.9km W (300°)
ENBN 58.2km S (232°)
ENRA 80.9km N (037°)
ESUT 85.2km E (087°)

24 Hour Weather History

Loading
-

24 Hour Weather Graphs

Loading
-

CheckWX.com is intended as a tool to help pilots better visualize weather data. It is not intended as a substitute for an official weather briefing obtained from a Flight Service Station. CheckWX.com does not meet the FAA requirements for an official pre-flight weather briefing. Therefore, it's important that pilots still call and obtain an official FSS pre-flight weather briefing.